createdAt,value
2018-05-18T00:01:12.745Z,13.97
2018-05-18T00:03:40.325Z,12.17
2018-05-18T00:06:07.883Z,12.87
2018-05-18T00:08:35.478Z,10.17
2018-05-18T00:11:03.029Z,12.17
2018-05-18T00:13:30.617Z,16.47
2018-05-18T00:15:58.177Z,18.13
2018-05-18T00:18:25.766Z,14.03
2018-05-18T00:20:53.334Z,15.47
2018-05-18T00:23:20.921Z,13.50
2018-05-18T00:25:48.482Z,15.23
2018-05-18T00:28:16.070Z,13.63
2018-05-18T00:30:43.636Z,10.17
2018-05-18T00:33:12.032Z,9.97
2018-05-18T00:35:39.611Z,8.97
2018-05-18T00:38:07.165Z,13.00
2018-05-18T00:40:34.737Z,9.30
2018-05-18T00:43:02.300Z,12.80
2018-05-18T00:45:29.894Z,9.13
2018-05-18T00:47:57.450Z,11.37
2018-05-18T00:50:25.098Z,12.30
2018-05-18T00:52:52.618Z,10.43
2018-05-18T00:55:32.134Z,8.47
2018-05-18T00:57:59.709Z,8.50
2018-05-18T01:00:27.287Z,8.17
2018-05-18T01:02:54.889Z,7.67
2018-05-18T01:05:22.473Z,8.73
2018-05-18T01:07:50.819Z,8.00
2018-05-18T01:10:18.429Z,8.43
2018-05-18T01:12:45.993Z,7.30
2018-05-18T01:15:13.597Z,7.27
2018-05-18T01:17:41.153Z,7.37
2018-05-18T01:20:08.741Z,7.70
2018-05-18T01:22:37.070Z,8.73
2018-05-18T01:25:04.661Z,8.00
2018-05-18T01:27:32.245Z,7.20
2018-05-18T01:29:59.855Z,8.50
2018-05-18T01:32:27.425Z,8.43
2018-05-18T01:34:55.015Z,8.80
2018-05-18T01:37:23.612Z,9.13
2018-05-18T01:39:51.244Z,8.70
2018-05-18T01:42:18.821Z,8.53
2018-05-18T01:44:47.132Z,8.27
2018-05-18T01:47:14.708Z,8.43
2018-05-18T01:49:42.290Z,7.17
2018-05-18T01:52:09.869Z,8.47
2018-05-18T01:54:38.203Z,12.53
2018-05-18T01:57:06.559Z,10.27
2018-05-18T01:59:34.122Z,10.73
2018-05-18T02:02:01.730Z,9.40
2018-05-18T02:04:29.276Z,8.53
2018-05-18T02:06:56.849Z,9.07
2018-05-18T02:09:24.417Z,11.17
2018-05-18T02:11:52.002Z,11.20
2018-05-18T02:14:19.561Z,9.00
2018-05-18T02:16:47.137Z,10.33
2018-05-18T02:19:14.694Z,8.10
2018-05-18T02:21:42.273Z,9.43
2018-05-18T02:24:09.883Z,7.37
2018-05-18T02:26:37.473Z,8.70
2018-05-18T02:29:05.051Z,7.90
2018-05-18T02:31:32.630Z,8.13
2018-05-18T02:34:00.173Z,9.00
2018-05-18T02:36:27.749Z,7.90
2018-05-18T02:38:55.301Z,6.10
2018-05-18T02:41:22.902Z,7.67
2018-05-18T02:43:51.338Z,7.00
2018-05-18T02:46:18.917Z,7.47
2018-05-18T02:48:47.274Z,7.37
2018-05-18T02:51:14.898Z,7.90
2018-05-18T02:53:42.465Z,8.90
2018-05-18T02:56:10.078Z,7.00
2018-05-18T02:58:37.642Z,8.30
2018-05-18T03:01:05.967Z,7.93
2018-05-18T03:03:33.563Z,9.80
2018-05-18T03:06:01.114Z,8.57
2018-05-18T03:08:28.703Z,6.80
2018-05-18T03:10:57.018Z,6.90
2018-05-18T03:13:24.591Z,6.80
2018-05-18T03:15:52.149Z,8.87
2018-05-18T03:18:19.747Z,7.57
2018-05-18T03:20:48.082Z,7.20
2018-05-18T03:23:15.677Z,7.93
2018-05-18T03:25:43.993Z,9.00
2018-05-18T03:28:11.610Z,7.63
2018-05-18T03:30:39.185Z,11.17
2018-05-18T03:33:06.846Z,9.80
2018-05-18T03:35:34.407Z,10.50
2018-05-18T03:38:01.992Z,7.80
2018-05-18T03:40:29.561Z,12.17
2018-05-18T03:42:57.138Z,30.60
2018-05-18T03:45:24.695Z,26.63
2018-05-18T03:47:52.278Z,11.00
2018-05-18T03:50:19.842Z,8.10
2018-05-18T03:52:47.455Z,13.30
2018-05-18T03:55:15.016Z,15.93
2018-05-18T03:57:42.597Z,16.50
2018-05-18T04:00:10.157Z,10.17
2018-05-18T04:02:49.559Z,7.70
2018-05-18T04:05:28.849Z,12.27
2018-05-18T04:08:08.221Z,11.90
2018-05-18T04:10:35.792Z,14.43
2018-05-18T04:13:03.380Z,8.50
2018-05-18T04:15:30.944Z,9.13
2018-05-18T04:17:58.542Z,9.67
2018-05-18T04:20:26.861Z,16.23
2018-05-18T04:22:54.461Z,9.77
2018-05-18T04:25:22.031Z,9.27
2018-05-18T04:27:50.361Z,7.67
2018-05-18T04:30:17.969Z,7.90
2018-05-18T04:32:45.525Z,12.70
2018-05-18T04:35:13.870Z,9.70
2018-05-18T04:37:41.439Z,7.70
2018-05-18T04:40:09.024Z,12.07
2018-05-18T04:42:36.575Z,12.63
2018-05-18T04:45:04.165Z,11.07
2018-05-18T04:47:31.730Z,15.30
2018-05-18T04:49:59.330Z,15.30
2018-05-18T04:52:26.899Z,9.67
2018-05-18T04:54:54.497Z,10.27
2018-05-18T04:57:22.070Z,11.27
2018-05-18T04:59:49.645Z,9.80
2018-05-18T05:02:17.986Z,10.17
2018-05-18T05:04:45.581Z,11.17
2018-05-18T05:07:13.306Z,11.40
2018-05-18T05:09:40.881Z,12.13
2018-05-18T05:12:08.446Z,13.90
2018-05-18T05:14:36.034Z,12.57
2018-05-18T05:17:03.593Z,10.27
2018-05-18T05:19:31.173Z,15.50
2018-05-18T05:21:58.752Z,30.50
2018-05-18T05:24:26.330Z,10.67
2018-05-18T05:26:53.895Z,10.80
2018-05-18T05:29:21.472Z,10.23
2018-05-18T05:31:49.026Z,9.40
2018-05-18T05:34:16.612Z,11.00
2018-05-18T05:36:44.225Z,9.60
2018-05-18T05:39:11.782Z,9.33
2018-05-18T05:41:39.355Z,10.87
2018-05-18T05:44:06.931Z,9.73
2018-05-18T05:46:34.522Z,9.07
2018-05-18T05:49:02.081Z,9.60
2018-05-18T05:51:29.658Z,8.60
2018-05-18T05:53:57.981Z,8.60
2018-05-18T05:56:25.561Z,7.73
2018-05-18T05:58:53.134Z,12.03
2018-05-18T06:01:20.726Z,9.77
2018-05-18T06:03:48.281Z,10.63
2018-05-18T06:06:15.866Z,8.83
2018-05-18T06:08:43.426Z,9.80
2018-05-18T06:11:11.022Z,9.83
2018-05-18T06:13:38.579Z,8.80
2018-05-18T06:16:06.326Z,8.30
2018-05-18T06:18:34.661Z,8.23
2018-05-18T06:21:02.239Z,8.67
2018-05-18T06:23:29.796Z,9.43
2018-05-18T06:25:57.377Z,7.47
2018-05-18T06:28:25.700Z,8.40
2018-05-18T06:30:53.285Z,9.10
2018-05-18T06:33:20.837Z,9.43
2018-05-18T06:35:48.413Z,8.73
2018-05-18T06:38:15.976Z,10.80
2018-05-18T06:40:43.559Z,10.27
2018-05-18T06:43:11.119Z,8.27
2018-05-18T06:45:38.711Z,9.17
2018-05-18T06:48:07.045Z,10.23
2018-05-18T06:50:34.629Z,8.73
2018-05-18T06:53:02.190Z,9.33
2018-05-18T06:55:29.751Z,9.10
2018-05-18T06:57:57.344Z,8.70
2018-05-18T07:00:25.330Z,9.63
2018-05-18T07:02:52.909Z,8.73
2018-05-18T07:05:20.474Z,8.53
2018-05-18T07:07:48.055Z,9.83
2018-05-18T07:10:16.382Z,7.90
2018-05-18T07:12:43.967Z,9.57
2018-05-18T07:15:11.526Z,9.77
2018-05-18T07:17:39.103Z,9.23
2018-05-18T07:20:06.669Z,9.67
2018-05-18T07:22:34.253Z,9.60
2018-05-18T07:25:02.585Z,10.13
2018-05-18T07:27:30.169Z,10.07
2018-05-18T07:29:58.511Z,7.37
2018-05-18T07:32:26.095Z,9.10
2018-05-18T07:34:53.650Z,8.20
2018-05-18T07:37:21.225Z,8.43
2018-05-18T07:39:49.546Z,10.70
2018-05-18T07:42:17.126Z,8.10
2018-05-18T07:44:45.457Z,9.70
2018-05-18T07:47:13.038Z,7.43
2018-05-18T07:49:40.599Z,9.50
2018-05-18T07:52:08.182Z,10.63
2018-05-18T07:54:35.743Z,8.90
2018-05-18T07:57:03.324Z,8.00
2018-05-18T07:59:30.917Z,9.40
2018-05-18T08:01:58.486Z,8.20
2018-05-18T08:04:26.041Z,8.50
2018-05-18T08:06:53.620Z,8.33
2018-05-18T08:09:21.177Z,7.83
2018-05-18T08:11:48.732Z,7.80
2018-05-18T08:14:16.309Z,8.30
2018-05-18T08:16:43.865Z,7.87
2018-05-18T08:19:11.445Z,7.47
2018-05-18T08:21:39.071Z,7.87
2018-05-18T08:24:07.382Z,8.03
2018-05-18T08:26:34.948Z,9.23
2018-05-18T08:29:14.418Z,8.17
2018-05-18T08:31:41.997Z,7.60
2018-05-18T08:34:09.585Z,7.67
2018-05-18T08:36:37.168Z,8.70
2018-05-18T08:39:05.758Z,8.03
2018-05-18T08:41:33.345Z,8.13
2018-05-18T08:44:01.065Z,8.83
2018-05-18T08:46:28.631Z,8.90
2018-05-18T08:48:56.986Z,7.23
2018-05-18T08:51:24.550Z,7.40
2018-05-18T08:53:52.131Z,7.43
2018-05-18T08:56:19.687Z,7.47
2018-05-18T08:58:48.041Z,7.50
2018-05-18T09:01:15.602Z,7.73
2018-05-18T09:03:43.201Z,8.03
2018-05-18T09:06:10.765Z,7.43
2018-05-18T09:08:38.343Z,7.87
2018-05-18T09:11:05.986Z,8.00
2018-05-18T09:13:33.589Z,9.07
2018-05-18T09:16:01.234Z,7.50
2018-05-18T09:18:29.532Z,8.13
2018-05-18T09:20:57.090Z,8.17
2018-05-18T09:23:24.673Z,7.50
2018-05-18T09:25:52.237Z,7.00
2018-05-18T09:28:20.592Z,8.00
2018-05-18T09:30:48.154Z,7.87
2018-05-18T09:33:15.740Z,8.00
2018-05-18T09:35:43.302Z,7.70
2018-05-18T09:38:11.653Z,6.10
2018-05-18T09:40:39.217Z,7.00
2018-05-18T09:43:06.866Z,8.07
2018-05-18T09:45:34.428Z,9.00
2018-05-18T09:48:02.026Z,9.33
2018-05-18T09:50:29.582Z,6.97
2018-05-18T09:52:57.900Z,6.83
2018-05-18T09:55:25.590Z,9.87
2018-05-18T09:57:53.833Z,6.97
2018-05-18T10:00:21.413Z,7.27
2018-05-18T10:02:48.969Z,8.10
2018-05-18T10:05:16.553Z,7.87
2018-05-18T10:07:44.116Z,8.80
2018-05-18T10:10:12.471Z,7.73
2018-05-18T10:12:40.034Z,7.20
2018-05-18T10:15:07.610Z,8.47
2018-05-18T10:17:35.930Z,6.80
2018-05-18T10:20:03.505Z,7.50
2018-05-18T10:22:31.072Z,8.60
2018-05-18T10:24:58.652Z,7.00
2018-05-18T10:27:26.215Z,7.43
2018-05-18T10:29:53.798Z,7.77
2018-05-18T10:32:22.117Z,7.60
2018-05-18T10:34:49.702Z,8.60
2018-05-18T10:37:17.265Z,6.87
2018-05-18T10:39:44.912Z,8.03
2018-05-18T10:42:12.422Z,8.60
2018-05-18T10:44:40.006Z,8.47
2018-05-18T10:47:07.562Z,7.43
2018-05-18T10:49:35.149Z,9.37
2018-05-18T10:52:02.753Z,8.30
2018-05-18T10:54:30.338Z,9.50
2018-05-18T10:56:57.921Z,9.77
2018-05-18T10:59:25.484Z,10.43
2018-05-18T11:01:53.061Z,7.50
2018-05-18T11:04:20.621Z,10.27
2018-05-18T11:06:48.233Z,8.57
2018-05-18T11:09:16.570Z,7.20
2018-05-18T11:11:44.917Z,9.70
2018-05-18T11:14:12.509Z,7.83
2018-05-18T11:16:40.094Z,9.20
2018-05-18T11:19:07.651Z,7.63
2018-05-18T11:21:35.236Z,8.33
2018-05-18T11:24:02.794Z,7.00
2018-05-18T11:26:30.383Z,8.07
2018-05-18T11:28:57.942Z,8.50
2018-05-18T11:31:25.525Z,8.80
2018-05-18T11:33:53.850Z,9.60
2018-05-18T11:36:21.433Z,8.27
2018-05-18T11:38:48.989Z,8.20
2018-05-18T11:41:16.580Z,8.47
2018-05-18T11:43:44.907Z,7.93
2018-05-18T11:46:12.495Z,8.67
2018-05-18T11:48:40.054Z,8.37
2018-05-18T11:51:07.638Z,8.50
2018-05-18T11:53:35.201Z,8.40
2018-05-18T11:56:02.789Z,8.47
2018-05-18T11:58:30.350Z,8.10
2018-05-18T12:00:57.934Z,8.93
2018-05-18T12:03:25.491Z,7.57
2018-05-18T12:05:53.069Z,9.47
2018-05-18T12:08:20.642Z,8.93
2018-05-18T12:10:48.970Z,8.80
2018-05-18T12:13:16.547Z,9.27
2018-05-18T12:15:44.119Z,8.07
2018-05-18T12:18:11.703Z,9.73
2018-05-18T12:20:40.026Z,8.00
2018-05-18T12:23:07.603Z,9.00
2018-05-18T12:25:35.440Z,8.23
2018-05-18T12:28:03.043Z,8.97
2018-05-18T12:30:30.610Z,7.27
2018-05-18T12:32:58.962Z,7.60
2018-05-18T12:35:26.523Z,7.90
2018-05-18T12:37:55.599Z,8.70
2018-05-18T12:40:24.182Z,9.53
2018-05-18T12:42:51.769Z,8.93
2018-05-18T12:45:19.341Z,8.40
2018-05-18T12:47:47.513Z,8.63
2018-05-18T12:50:16.432Z,8.30
2018-05-18T12:52:44.097Z,8.17
2018-05-18T12:55:11.660Z,7.50
2018-05-18T12:57:39.272Z,9.87
2018-05-18T13:00:07.588Z,9.53
2018-05-18T13:02:35.234Z,10.23
2018-05-18T13:05:04.100Z,8.80
2018-05-18T13:07:33.157Z,8.00
2018-05-18T13:10:00.743Z,7.90
2018-05-18T13:12:28.364Z,8.93
2018-05-18T13:14:56.688Z,8.73
2018-05-18T13:17:24.265Z,9.40
2018-05-18T13:19:51.835Z,10.10
2018-05-18T13:22:19.399Z,11.60
2018-05-18T13:24:46.991Z,10.10
2018-05-18T13:27:14.574Z,10.33
2018-05-18T13:29:42.161Z,10.00
2018-05-18T13:32:09.715Z,9.93
2018-05-18T13:34:37.321Z,10.00
2018-05-18T13:37:04.879Z,10.53
2018-05-18T13:39:32.462Z,8.93
2018-05-18T13:42:00.022Z,9.93
2018-05-18T13:44:27.613Z,11.90
2018-05-18T13:46:55.178Z,10.50
2018-05-18T13:49:23.525Z,10.70
2018-05-18T13:51:51.194Z,10.97
2018-05-18T13:54:18.717Z,12.10
2018-05-18T13:56:46.281Z,12.07
2018-05-18T13:59:13.897Z,11.93
2018-05-18T14:01:41.526Z,10.90
2018-05-18T14:04:09.066Z,11.67
2018-05-18T14:06:36.630Z,11.10
2018-05-18T14:09:06.930Z,10.13
2018-05-18T14:11:34.493Z,11.77
2018-05-18T14:14:02.090Z,11.77
2018-05-18T14:16:29.651Z,11.00
2018-05-18T14:18:57.245Z,12.07
2018-05-18T14:21:24.812Z,11.17
2018-05-18T14:23:52.401Z,10.87
2018-05-18T14:26:20.000Z,12.27
2018-05-18T14:28:47.573Z,11.47
2018-05-18T14:31:15.906Z,11.33
2018-05-18T14:33:43.500Z,12.60
2018-05-18T14:36:11.057Z,10.63
2018-05-18T14:38:40.522Z,9.90
2018-05-18T14:41:08.106Z,9.77
2018-05-18T14:43:35.685Z,10.37
2018-05-18T14:46:03.307Z,10.57
2018-05-18T14:48:30.869Z,9.70
2018-05-18T14:50:58.453Z,9.27
2018-05-18T14:53:26.023Z,8.70
2018-05-18T14:55:54.386Z,10.93
2018-05-18T14:58:21.946Z,10.33
2018-05-18T15:00:49.530Z,8.90
2018-05-18T15:03:17.090Z,9.60
2018-05-18T15:05:44.705Z,9.33
2018-05-18T15:08:12.262Z,11.27
2018-05-18T15:10:39.847Z,8.50
2018-05-18T15:13:07.410Z,9.17
2018-05-18T15:15:34.997Z,9.13
2018-05-18T15:18:02.558Z,9.60
2018-05-18T15:20:30.140Z,8.70
2018-05-18T15:22:57.704Z,9.17
2018-05-18T15:25:25.306Z,10.33
2018-05-18T15:27:52.867Z,11.20
2018-05-18T15:30:21.229Z,8.87
2018-05-18T15:32:48.789Z,12.60
2018-05-18T15:35:16.373Z,8.67
2018-05-18T15:37:43.934Z,9.50
2018-05-18T15:40:11.517Z,9.00
2018-05-18T15:42:39.089Z,10.53
2018-05-18T15:45:06.666Z,8.43
2018-05-18T15:47:34.543Z,7.50
2018-05-18T15:50:02.468Z,7.90
2018-05-18T15:52:30.053Z,8.17
2018-05-18T15:54:57.613Z,7.30
2018-05-18T15:57:25.209Z,12.60
2018-05-18T15:59:53.551Z,8.80
2018-05-18T16:02:21.148Z,8.97
2018-05-18T16:04:48.701Z,7.30
2018-05-18T16:07:17.050Z,7.17
2018-05-18T16:09:44.615Z,11.60
2018-05-18T16:12:12.196Z,5.67
2018-05-18T16:14:39.777Z,8.37
2018-05-18T16:17:07.372Z,7.70
2018-05-18T16:19:34.949Z,7.27
2018-05-18T16:22:02.565Z,6.60
2018-05-18T16:24:30.154Z,6.30
2018-05-18T16:26:57.738Z,7.20
2018-05-18T16:29:25.295Z,6.67
2018-05-18T16:31:52.874Z,7.53
2018-05-18T16:34:21.201Z,7.20
2018-05-18T16:36:48.789Z,7.50
2018-05-18T16:39:17.282Z,6.57
2018-05-18T16:41:44.905Z,7.53
2018-05-18T16:44:12.466Z,7.73
2018-05-18T16:46:40.814Z,6.90
2018-05-18T16:49:08.375Z,6.90
2018-05-18T16:51:35.998Z,6.87
2018-05-18T16:54:03.593Z,7.53
2018-05-18T16:56:31.179Z,7.13
2018-05-18T16:58:58.735Z,6.67
2018-05-18T17:01:26.333Z,7.17
2018-05-18T17:03:53.918Z,6.67
2018-05-18T17:06:21.514Z,8.30
2018-05-18T17:08:49.069Z,8.47
2018-05-18T17:11:16.637Z,12.30
2018-05-18T17:13:44.231Z,13.27
2018-05-18T17:16:12.557Z,9.47
2018-05-18T17:18:40.151Z,8.40
2018-05-18T17:21:07.715Z,7.43
2018-05-18T17:23:35.319Z,7.13
2018-05-18T17:26:02.878Z,7.93
2018-05-18T17:28:30.454Z,7.97
2018-05-18T17:30:58.021Z,8.23
2018-05-18T17:33:25.604Z,8.50
2018-05-18T17:35:53.161Z,8.00
2018-05-18T17:38:20.749Z,8.30
2018-05-18T17:40:49.079Z,7.80
2018-05-18T17:43:16.664Z,8.00
2018-05-18T17:45:44.250Z,7.53
2018-05-18T17:48:11.847Z,7.70
2018-05-18T17:50:39.410Z,7.67
2018-05-18T17:53:07.033Z,8.00
2018-05-18T17:55:35.370Z,7.70
2018-05-18T17:58:02.983Z,8.47
2018-05-18T18:00:30.577Z,9.10
2018-05-18T18:02:58.162Z,9.07
2018-05-18T18:05:25.739Z,9.10
2018-05-18T18:07:54.145Z,8.30
2018-05-18T18:10:22.440Z,8.83
2018-05-18T18:12:50.040Z,9.90
2018-05-18T18:15:17.646Z,11.77
2018-05-18T18:17:45.235Z,10.40
2018-05-18T18:20:12.803Z,8.87
2018-05-18T18:22:40.390Z,9.80
2018-05-18T18:25:08.745Z,10.20
2018-05-18T18:27:36.307Z,9.60
2018-05-18T18:30:03.894Z,11.50
2018-05-18T18:32:31.457Z,11.70
2018-05-18T18:35:00.698Z,8.73
2018-05-18T18:37:28.256Z,7.80
2018-05-18T18:39:55.841Z,8.47
2018-05-18T18:42:23.407Z,11.80
2018-05-18T18:44:50.989Z,9.40
2018-05-18T18:47:18.554Z,10.33
2018-05-18T18:49:46.441Z,10.87
2018-05-18T18:52:16.011Z,11.40
2018-05-18T18:54:43.663Z,10.57
2018-05-18T18:57:11.230Z,11.90
2018-05-18T18:59:40.995Z,10.00
2018-05-18T19:02:08.645Z,10.47
2018-05-18T19:04:36.302Z,11.60
2018-05-18T19:07:03.869Z,10.83
2018-05-18T19:09:31.463Z,12.40
2018-05-18T19:11:59.026Z,11.23
2018-05-18T19:14:27.397Z,11.10
2018-05-18T19:16:54.953Z,10.80
2018-05-18T19:19:22.541Z,12.07
2018-05-18T19:21:50.105Z,13.03
2018-05-18T19:24:17.737Z,12.00
2018-05-18T19:26:45.288Z,8.83
2018-05-18T19:29:12.877Z,11.70
2018-05-18T19:31:41.201Z,12.60
2018-05-18T19:34:08.787Z,13.17
2018-05-18T19:36:36.430Z,11.63
2018-05-18T19:39:05.356Z,12.20
2018-05-18T19:41:33.689Z,11.90
2018-05-18T19:44:01.256Z,12.30
2018-05-18T19:46:28.841Z,34.13
2018-05-18T19:48:56.418Z,28.30
2018-05-18T19:51:24.777Z,22.33
2018-05-18T19:53:53.117Z,19.43
2018-05-18T19:56:20.710Z,21.03
2018-05-18T19:58:48.273Z,28.40
2018-05-18T20:01:15.863Z,28.40
2018-05-18T20:03:43.422Z,23.70
2018-05-18T20:06:11.003Z,21.37
2018-05-18T20:08:38.567Z,15.73
2018-05-18T20:11:06.149Z,16.20
2018-05-18T20:13:35.214Z,14.97
2018-05-18T20:16:02.896Z,14.37
2018-05-18T20:18:30.456Z,17.03
2018-05-18T20:20:58.037Z,14.60
2018-05-18T20:23:25.610Z,17.20
2018-05-18T20:25:53.970Z,18.63
2018-05-18T20:28:21.529Z,16.13
2018-05-18T20:30:49.109Z,16.43
2018-05-18T20:33:16.674Z,15.60
2018-05-18T20:35:44.259Z,16.87
2018-05-18T20:38:11.861Z,16.60
2018-05-18T20:40:40.201Z,16.70
2018-05-18T20:43:07.774Z,14.20
2018-05-18T20:45:35.389Z,15.90
2018-05-18T20:48:02.954Z,15.37
2018-05-18T20:50:30.535Z,16.33
2018-05-18T20:52:58.098Z,15.90
2018-05-18T20:55:25.690Z,15.90
2018-05-18T20:57:53.254Z,18.70
2018-05-18T21:00:20.818Z,18.07
2018-05-18T21:02:48.409Z,16.33
2018-05-18T21:05:15.969Z,17.47
2018-05-18T21:07:43.551Z,17.90
2018-05-18T21:10:11.111Z,17.10
2018-05-18T21:12:38.697Z,19.47
2018-05-18T21:15:06.254Z,15.50
2018-05-18T21:17:33.842Z,16.07
2018-05-18T21:20:01.407Z,15.20
2018-05-18T21:22:29.758Z,14.03
2018-05-18T21:24:57.313Z,16.13
2018-05-18T21:27:24.895Z,15.40
2018-05-18T21:29:53.226Z,15.57
2018-05-18T21:32:20.807Z,16.23
2018-05-18T21:34:49.130Z,15.50
2018-05-18T21:37:16.710Z,15.90
2018-05-18T21:39:44.275Z,15.70
2018-05-18T21:42:11.861Z,15.37
2018-05-18T21:44:39.427Z,14.40
2018-05-18T21:47:07.013Z,14.90
2018-05-18T21:49:34.583Z,13.00
2018-05-18T21:52:02.169Z,12.83
2018-05-18T21:54:29.740Z,15.53
2018-05-18T21:56:57.321Z,15.33
2018-05-18T21:59:24.889Z,14.97
2018-05-18T22:01:52.469Z,13.33
2018-05-18T22:04:20.802Z,14.37
2018-05-18T22:06:48.393Z,12.87
2018-05-18T22:09:15.956Z,12.50
2018-05-18T22:11:43.540Z,12.63
2018-05-18T22:14:11.106Z,12.93
2018-05-18T22:16:38.696Z,12.33
2018-05-18T22:19:07.026Z,12.73
2018-05-18T22:21:34.583Z,12.57
2018-05-18T22:24:02.182Z,13.00
2018-05-18T22:26:29.758Z,12.57
2018-05-18T22:28:57.341Z,14.30
2018-05-18T22:31:24.917Z,11.47
2018-05-18T22:33:52.499Z,12.80
2018-05-18T22:36:20.059Z,13.03
2018-05-18T22:38:47.637Z,13.60
2018-05-18T22:41:15.192Z,12.87
2018-05-18T22:43:42.774Z,12.90
2018-05-18T22:46:10.338Z,12.73
2018-05-18T22:48:37.928Z,12.63
2018-05-18T22:51:06.253Z,15.20
2018-05-18T22:53:33.846Z,14.90
2018-05-18T22:56:01.405Z,14.53
2018-05-18T22:58:28.985Z,12.80
2018-05-18T23:00:57.315Z,12.37
2018-05-18T23:03:24.895Z,13.80
2018-05-18T23:05:52.449Z,13.00
2018-05-18T23:08:20.036Z,14.50
2018-05-18T23:10:48.358Z,13.50
2018-05-18T23:13:15.937Z,13.70
2018-05-18T23:15:43.496Z,15.50
2018-05-18T23:18:11.083Z,13.10
2018-05-18T23:20:39.406Z,14.77
2018-05-18T23:23:06.991Z,14.57
2018-05-18T23:25:34.554Z,13.80
2018-05-18T23:28:02.175Z,15.10
2018-05-18T23:30:29.733Z,15.20
2018-05-18T23:32:57.318Z,13.80
2018-05-18T23:35:24.873Z,14.47
2018-05-18T23:37:52.448Z,13.70
2018-05-18T23:40:20.030Z,12.93
2018-05-18T23:42:48.356Z,12.57
2018-05-18T23:45:15.946Z,13.67
2018-05-18T23:47:43.513Z,14.23
2018-05-18T23:50:11.099Z,12.97
2018-05-18T23:52:39.422Z,14.00
2018-05-18T23:55:07.005Z,11.60
2018-05-18T23:57:34.577Z,12.73
